Dunbar, United Kingdom
Current Conditions -  °F | °C
As of 1:50 AM on Saturday 01 Nov 2014 (Local Time) from EGQL Reporting Station
Clear Clear  
Wind Chill: 55°   Ceiling: Unl
Heat Index: 55°   Visibility: 6mi
Dew Point: 52°   Wind: 16mph
Humidity: 88%   Direction: 240°WSW
Pressure: 29.59"   Gusts: NA
Location:  56°N, 2.51°W
Report Text: EGQL 010150Z 24014KT CAVOK 13/11 Q1002 BLU
Loading
Personal Weather Stations






























Interactive Weather Map New forecast layout! Learn more

10-Day Weather Forecast

Advertisements
Track Severe Weather on mobile